sensor_id;sensor_type;location;lat;lon;timestamp;P1;durP1;ratioP1;P2;durP2;ratioP2
4096;SDS011;2062;50.694;7.246;2023-05-02T00:00:52;26.73;;;15.70;;
4096;SDS011;2062;50.694;7.246;2023-05-02T00:03:19;25.90;;;14.43;;
4096;SDS011;2062;50.694;7.246;2023-05-02T00:05:45;27.65;;;14.80;;
4096;SDS011;2062;50.694;7.246;2023-05-02T00:08:12;28.25;;;15.45;;
4096;SDS011;2062;50.694;7.246;2023-05-02T00:10:40;30.45;;;17.42;;
4096;SDS011;2062;50.694;7.246;2023-05-02T00:13:07;29.73;;;16.07;;
4096;SDS011;2062;50.694;7.246;2023-05-02T00:15:33;23.33;;;14.90;;
4096;SDS011;2062;50.694;7.246;2023-05-02T00:18:02;27.65;;;16.25;;
4096;SDS011;2062;50.694;7.246;2023-05-02T00:20:29;28.10;;;15.88;;
4096;SDS011;2062;50.694;7.246;2023-05-02T00:22:55;25.92;;;14.07;;
4096;SDS011;2062;50.694;7.246;2023-05-02T00:25:22;28.03;;;14.80;;
4096;SDS011;2062;50.694;7.246;2023-05-02T00:27:49;28.77;;;15.65;;
4096;SDS011;2062;50.694;7.246;2023-05-02T00:30:16;29.98;;;15.48;;
4096;SDS011;2062;50.694;7.246;2023-05-02T00:32:45;28.85;;;16.10;;
4096;SDS011;2062;50.694;7.246;2023-05-02T00:35:13;26.55;;;15.23;;
4096;SDS011;2062;50.694;7.246;2023-05-02T00:37:40;30.00;;;16.40;;
4096;SDS011;2062;50.694;7.246;2023-05-02T00:40:07;29.30;;;15.63;;
4096;SDS011;2062;50.694;7.246;2023-05-02T00:42:34;27.77;;;15.80;;
4096;SDS011;2062;50.694;7.246;2023-05-02T00:45:01;27.42;;;14.68;;
4096;SDS011;2062;50.694;7.246;2023-05-02T00:47:30;28.85;;;15.57;;
4096;SDS011;2062;50.694;7.246;2023-05-02T00:49:57;27.27;;;15.00;;
4096;SDS011;2062;50.694;7.246;2023-05-02T00:52:26;27.52;;;15.40;;
4096;SDS011;2062;50.694;7.246;2023-05-02T00:54:53;27.85;;;15.23;;
4096;SDS011;2062;50.694;7.246;2023-05-02T00:57:21;29.02;;;15.50;;
4096;SDS011;2062;50.694;7.246;2023-05-02T00:59:47;29.17;;;14.50;;
4096;SDS011;2062;50.694;7.246;2023-05-02T01:02:21;28.47;;;15.60;;
4096;SDS011;2062;50.694;7.246;2023-05-02T01:04:59;29.38;;;16.00;;
4096;SDS011;2062;50.694;7.246;2023-05-02T01:10:37;26.85;;;14.15;;
4096;SDS011;2062;50.694;7.246;2023-05-02T01:13:11;31.52;;;16.83;;
4096;SDS011;2062;50.694;7.246;2023-05-02T01:15:45;29.40;;;15.53;;
4096;SDS011;2062;50.694;7.246;2023-05-02T01:18:13;28.67;;;15.57;;
4096;SDS011;2062;50.694;7.246;2023-05-02T01:20:43;29.27;;;16.08;;
4096;SDS011;2062;50.694;7.246;2023-05-02T01:23:15;30.88;;;16.52;;
4096;SDS011;2062;50.694;7.246;2023-05-02T01:25:55;29.75;;;16.75;;
4096;SDS011;2062;50.694;7.246;2023-05-02T01:28:35;30.67;;;16.27;;
4096;SDS011;2062;50.694;7.246;2023-05-02T01:31:20;29.35;;;15.77;;
4096;SDS011;2062;50.694;7.246;2023-05-02T01:33:48;34.90;;;17.38;;
4096;SDS011;2062;50.694;7.246;2023-05-02T01:36:17;33.10;;;16.98;;
4096;SDS011;2062;50.694;7.246;2023-05-02T01:38:45;38.65;;;19.23;;
4096;SDS011;2062;50.694;7.246;2023-05-02T01:41:15;34.60;;;17.70;;
4096;SDS011;2062;50.694;7.246;2023-05-02T01:43:42;35.13;;;18.30;;
4096;SDS011;2062;50.694;7.246;2023-05-02T01:46:12;38.47;;;19.35;;
4096;SDS011;2062;50.694;7.246;2023-05-02T01:48:40;35.17;;;17.20;;
4096;SDS011;2062;50.694;7.246;2023-05-02T01:51:09;33.15;;;16.80;;
4096;SDS011;2062;50.694;7.246;2023-05-02T01:53:37;38.97;;;19.40;;
4096;SDS011;2062;50.694;7.246;2023-05-02T01:56:05;36.83;;;18.30;;
4096;SDS011;2062;50.694;7.246;2023-05-02T01:58:32;36.55;;;19.33;;
4096;SDS011;2062;50.694;7.246;2023-05-02T02:01:01;40.08;;;19.55;;
4096;SDS011;2062;50.694;7.246;2023-05-02T02:03:30;39.08;;;19.05;;
4096;SDS011;2062;50.694;7.246;2023-05-02T02:05:58;37.73;;;18.97;;
4096;SDS011;2062;50.694;7.246;2023-05-02T02:08:26;38.55;;;18.85;;
4096;SDS011;2062;50.694;7.246;2023-05-02T02:10:53;35.45;;;18.35;;
4096;SDS011;2062;50.694;7.246;2023-05-02T02:13:25;41.40;;;19.00;;
4096;SDS011;2062;50.694;7.246;2023-05-02T02:15:58;40.15;;;18.60;;
4096;SDS011;2062;50.694;7.246;2023-05-02T02:18:26;43.10;;;19.63;;
4096;SDS011;2062;50.694;7.246;2023-05-02T02:20:57;38.50;;;19.02;;
4096;SDS011;2062;50.694;7.246;2023-05-02T02:23:25;47.33;;;20.27;;
4096;SDS011;2062;50.694;7.246;2023-05-02T02:25:54;40.88;;;19.30;;
4096;SDS011;2062;50.694;7.246;2023-05-02T02:28:22;44.75;;;19.55;;
4096;SDS011;2062;50.694;7.246;2023-05-02T02:30:49;40.37;;;19.37;;
4096;SDS011;2062;50.694;7.246;2023-05-02T02:33:16;42.60;;;19.55;;
4096;SDS011;2062;50.694;7.246;2023-05-02T02:35:47;44.20;;;20.25;;
4096;SDS011;2062;50.694;7.246;2023-05-02T02:38:22;46.58;;;19.40;;
4096;SDS011;2062;50.694;7.246;2023-05-02T02:40:56;46.30;;;20.67;;
4096;SDS011;2062;50.694;7.246;2023-05-02T02:43:32;45.90;;;19.10;;
4096;SDS011;2062;50.694;7.246;2023-05-02T02:46:08;44.63;;;19.33;;
4096;SDS011;2062;50.694;7.246;2023-05-02T02:48:42;47.58;;;20.23;;
4096;SDS011;2062;50.694;7.246;2023-05-02T02:51:19;43.80;;;19.52;;
4096;SDS011;2062;50.694;7.246;2023-05-02T02:53:56;46.70;;;20.50;;
4096;SDS011;2062;50.694;7.246;2023-05-02T02:56:33;49.63;;;20.57;;
4096;SDS011;2062;50.694;7.246;2023-05-02T02:59:05;48.08;;;19.50;;
4096;SDS011;2062;50.694;7.246;2023-05-02T03:01:38;51.45;;;21.85;;
4096;SDS011;2062;50.694;7.246;2023-05-02T03:04:07;58.53;;;23.92;;
4096;SDS011;2062;50.694;7.246;2023-05-02T03:06:38;53.75;;;21.63;;
4096;SDS011;2062;50.694;7.246;2023-05-02T03:09:06;52.50;;;21.83;;
4096;SDS011;2062;50.694;7.246;2023-05-02T03:11:41;55.00;;;22.23;;
4096;SDS011;2062;50.694;7.246;2023-05-02T03:14:09;54.33;;;23.33;;
4096;SDS011;2062;50.694;7.246;2023-05-02T03:16:36;57.05;;;23.30;;
4096;SDS011;2062;50.694;7.246;2023-05-02T03:19:04;53.35;;;22.98;;
4096;SDS011;2062;50.694;7.246;2023-05-02T03:21:32;56.30;;;23.37;;
4096;SDS011;2062;50.694;7.246;2023-05-02T03:24:00;54.45;;;24.00;;
4096;SDS011;2062;50.694;7.246;2023-05-02T03:26:29;61.05;;;25.52;;
4096;SDS011;2062;50.694;7.246;2023-05-02T03:28:56;57.35;;;24.00;;
4096;SDS011;2062;50.694;7.246;2023-05-02T03:31:23;54.25;;;22.60;;
4096;SDS011;2062;50.694;7.246;2023-05-02T03:33:49;54.27;;;22.87;;
4096;SDS011;2062;50.694;7.246;2023-05-02T03:36:17;56.72;;;22.92;;
4096;SDS011;2062;50.694;7.246;2023-05-02T03:38:44;52.08;;;20.90;;
4096;SDS011;2062;50.694;7.246;2023-05-02T03:41:10;51.28;;;21.90;;
4096;SDS011;2062;50.694;7.246;2023-05-02T03:43:38;52.88;;;23.02;;
4096;SDS011;2062;50.694;7.246;2023-05-02T03:46:06;57.17;;;22.03;;
4096;SDS011;2062;50.694;7.246;2023-05-02T03:48:36;52.50;;;22.17;;
4096;SDS011;2062;50.694;7.246;2023-05-02T03:51:03;55.53;;;23.42;;
4096;SDS011;2062;50.694;7.246;2023-05-02T03:53:31;52.20;;;23.17;;
4096;SDS011;2062;50.694;7.246;2023-05-02T03:55:58;56.00;;;22.80;;
4096;SDS011;2062;50.694;7.246;2023-05-02T03:58:25;59.20;;;24.37;;
4096;SDS011;2062;50.694;7.246;2023-05-02T04:00:53;52.72;;;23.23;;
4096;SDS011;2062;50.694;7.246;2023-05-02T04:03:20;54.58;;;23.52;;
4096;SDS011;2062;50.694;7.246;2023-05-02T04:05:48;55.03;;;22.73;;
4096;SDS011;2062;50.694;7.246;2023-05-02T04:08:15;53.25;;;22.70;;
4096;SDS011;2062;50.694;7.246;2023-05-02T04:10:42;54.20;;;22.70;;
4096;SDS011;2062;50.694;7.246;2023-05-02T04:13:09;49.45;;;21.08;;
4096;SDS011;2062;50.694;7.246;2023-05-02T04:15:36;49.72;;;20.75;;
4096;SDS011;2062;50.694;7.246;2023-05-02T04:18:04;47.63;;;20.17;;
4096;SDS011;2062;50.694;7.246;2023-05-02T04:20:31;46.20;;;20.48;;
4096;SDS011;2062;50.694;7.246;2023-05-02T04:22:58;47.50;;;19.20;;
4096;SDS011;2062;50.694;7.246;2023-05-02T04:25:25;48.33;;;20.35;;
4096;SDS011;2062;50.694;7.246;2023-05-02T04:27:52;54.88;;;21.13;;
4096;SDS011;2062;50.694;7.246;2023-05-02T04:30:19;48.17;;;19.20;;
4096;SDS011;2062;50.694;7.246;2023-05-02T04:32:46;52.67;;;19.38;;
4096;SDS011;2062;50.694;7.246;2023-05-02T04:35:14;47.77;;;18.37;;
4096;SDS011;2062;50.694;7.246;2023-05-02T04:37:41;51.10;;;19.60;;
4096;SDS011;2062;50.694;7.246;2023-05-02T04:40:09;48.15;;;19.52;;
4096;SDS011;2062;50.694;7.246;2023-05-02T04:42:36;48.70;;;18.90;;
4096;SDS011;2062;50.694;7.246;2023-05-02T04:45:04;41.78;;;17.40;;
4096;SDS011;2062;50.694;7.246;2023-05-02T04:47:32;43.67;;;17.60;;
4096;SDS011;2062;50.694;7.246;2023-05-02T04:49:58;45.05;;;17.00;;
4096;SDS011;2062;50.694;7.246;2023-05-02T04:52:27;43.83;;;17.75;;
4096;SDS011;2062;50.694;7.246;2023-05-02T04:54:55;46.78;;;17.25;;
4096;SDS011;2062;50.694;7.246;2023-05-02T04:57:21;45.47;;;16.77;;
4096;SDS011;2062;50.694;7.246;2023-05-02T04:59:48;47.07;;;17.07;;
4096;SDS011;2062;50.694;7.246;2023-05-02T05:02:15;44.20;;;18.10;;
4096;SDS011;2062;50.694;7.246;2023-05-02T05:04:43;44.60;;;17.63;;
4096;SDS011;2062;50.694;7.246;2023-05-02T05:07:10;45.97;;;18.02;;
4096;SDS011;2062;50.694;7.246;2023-05-02T05:09:38;40.20;;;16.48;;
4096;SDS011;2062;50.694;7.246;2023-05-02T05:12:05;41.27;;;16.23;;
4096;SDS011;2062;50.694;7.246;2023-05-02T05:14:32;44.03;;;17.92;;
4096;SDS011;2062;50.694;7.246;2023-05-02T05:16:59;42.85;;;16.52;;
4096;SDS011;2062;50.694;7.246;2023-05-02T05:19:26;45.75;;;16.52;;
4096;SDS011;2062;50.694;7.246;2023-05-02T05:21:53;42.70;;;16.67;;
4096;SDS011;2062;50.694;7.246;2023-05-02T05:24:19;44.43;;;16.83;;
4096;SDS011;2062;50.694;7.246;2023-05-02T05:26:48;46.38;;;17.27;;
4096;SDS011;2062;50.694;7.246;2023-05-02T05:29:14;44.80;;;16.95;;
4096;SDS011;2062;50.694;7.246;2023-05-02T05:31:42;48.03;;;17.48;;
4096;SDS011;2062;50.694;7.246;2023-05-02T05:34:09;41.30;;;17.67;;
4096;SDS011;2062;50.694;7.246;2023-05-02T05:36:37;41.63;;;15.67;;
4096;SDS011;2062;50.694;7.246;2023-05-02T05:39:05;42.05;;;15.65;;
4096;SDS011;2062;50.694;7.246;2023-05-02T05:41:32;42.33;;;15.68;;
4096;SDS011;2062;50.694;7.246;2023-05-02T05:44:00;38.45;;;15.73;;
4096;SDS011;2062;50.694;7.246;2023-05-02T05:46:27;45.22;;;16.27;;
4096;SDS011;2062;50.694;7.246;2023-05-02T05:48:54;43.63;;;16.60;;
4096;SDS011;2062;50.694;7.246;2023-05-02T05:51:21;39.85;;;15.65;;
4096;SDS011;2062;50.694;7.246;2023-05-02T05:53:47;41.60;;;16.30;;
4096;SDS011;2062;50.694;7.246;2023-05-02T05:56:14;42.50;;;15.63;;
4096;SDS011;2062;50.694;7.246;2023-05-02T05:58:42;41.17;;;16.35;;
4096;SDS011;2062;50.694;7.246;2023-05-02T06:01:10;41.73;;;15.67;;
4096;SDS011;2062;50.694;7.246;2023-05-02T06:03:37;39.78;;;15.07;;
4096;SDS011;2062;50.694;7.246;2023-05-02T06:06:04;40.13;;;15.32;;
4096;SDS011;2062;50.694;7.246;2023-05-02T06:08:31;39.97;;;16.70;;
4096;SDS011;2062;50.694;7.246;2023-05-02T06:10:58;45.00;;;16.88;;
4096;SDS011;2062;50.694;7.246;2023-05-02T06:13:25;39.70;;;16.40;;
4096;SDS011;2062;50.694;7.246;2023-05-02T06:15:51;42.28;;;17.27;;
4096;SDS011;2062;50.694;7.246;2023-05-02T06:18:20;43.67;;;17.08;;
4096;SDS011;2062;50.694;7.246;2023-05-02T06:20:46;43.50;;;16.92;;
4096;SDS011;2062;50.694;7.246;2023-05-02T06:23:13;38.85;;;16.40;;
4096;SDS011;2062;50.694;7.246;2023-05-02T06:25:40;45.27;;;18.03;;
4096;SDS011;2062;50.694;7.246;2023-05-02T06:28:07;40.30;;;16.75;;
4096;SDS011;2062;50.694;7.246;2023-05-02T06:30:33;44.58;;;16.73;;
4096;SDS011;2062;50.694;7.246;2023-05-02T06:33:02;47.03;;;17.88;;
4096;SDS011;2062;50.694;7.246;2023-05-02T06:35:31;40.28;;;16.92;;
4096;SDS011;2062;50.694;7.246;2023-05-02T06:37:57;42.47;;;17.33;;
4096;SDS011;2062;50.694;7.246;2023-05-02T06:40:24;41.67;;;16.63;;
4096;SDS011;2062;50.694;7.246;2023-05-02T06:42:51;46.65;;;17.63;;
4096;SDS011;2062;50.694;7.246;2023-05-02T06:45:18;44.58;;;17.50;;
4096;SDS011;2062;50.694;7.246;2023-05-02T06:47:45;41.25;;;16.42;;
4096;SDS011;2062;50.694;7.246;2023-05-02T06:50:11;42.20;;;16.80;;
4096;SDS011;2062;50.694;7.246;2023-05-02T06:52:40;44.25;;;17.92;;
4096;SDS011;2062;50.694;7.246;2023-05-02T06:55:07;41.38;;;16.98;;
4096;SDS011;2062;50.694;7.246;2023-05-02T06:57:34;40.83;;;16.67;;
4096;SDS011;2062;50.694;7.246;2023-05-02T07:00:01;43.33;;;16.40;;
4096;SDS011;2062;50.694;7.246;2023-05-02T07:02:28;37.17;;;15.60;;
4096;SDS011;2062;50.694;7.246;2023-05-02T07:04:55;43.75;;;16.45;;
4096;SDS011;2062;50.694;7.246;2023-05-02T07:07:22;40.47;;;15.52;;
4096;SDS011;2062;50.694;7.246;2023-05-02T07:09:50;35.95;;;14.98;;
4096;SDS011;2062;50.694;7.246;2023-05-02T07:12:17;37.13;;;15.65;;
4096;SDS011;2062;50.694;7.246;2023-05-02T07:14:45;39.57;;;14.77;;
4096;SDS011;2062;50.694;7.246;2023-05-02T07:17:11;39.17;;;15.85;;
4096;SDS011;2062;50.694;7.246;2023-05-02T07:19:40;35.72;;;14.63;;
4096;SDS011;2062;50.694;7.246;2023-05-02T07:22:06;39.80;;;15.80;;
4096;SDS011;2062;50.694;7.246;2023-05-02T07:24:33;38.97;;;15.55;;
4096;SDS011;2062;50.694;7.246;2023-05-02T07:27:02;42.13;;;16.30;;
4096;SDS011;2062;50.694;7.246;2023-05-02T07:29:29;42.58;;;15.95;;
4096;SDS011;2062;50.694;7.246;2023-05-02T07:31:56;39.80;;;15.65;;
4096;SDS011;2062;50.694;7.246;2023-05-02T07:34:23;39.45;;;14.98;;
4096;SDS011;2062;50.694;7.246;2023-05-02T07:36:50;36.13;;;14.70;;
4096;SDS011;2062;50.694;7.246;2023-05-02T07:39:16;31.70;;;13.40;;
4096;SDS011;2062;50.694;7.246;2023-05-02T07:41:43;39.08;;;14.35;;
4096;SDS011;2062;50.694;7.246;2023-05-02T07:44:12;33.10;;;13.35;;
4096;SDS011;2062;50.694;7.246;2023-05-02T07:46:39;34.10;;;13.80;;
4096;SDS011;2062;50.694;7.246;2023-05-02T07:49:06;34.42;;;14.02;;
4096;SDS011;2062;50.694;7.246;2023-05-02T07:51:33;32.30;;;12.83;;
4096;SDS011;2062;50.694;7.246;2023-05-02T07:53:59;28.45;;;12.02;;
4096;SDS011;2062;50.694;7.246;2023-05-02T07:56:26;29.90;;;12.15;;
4096;SDS011;2062;50.694;7.246;2023-05-02T07:58:54;27.48;;;11.50;;
4096;SDS011;2062;50.694;7.246;2023-05-02T08:01:22;29.83;;;10.57;;
4096;SDS011;2062;50.694;7.246;2023-05-02T08:03:49;23.70;;;10.10;;
4096;SDS011;2062;50.694;7.246;2023-05-02T08:06:15;20.85;;;8.85;;
4096;SDS011;2062;50.694;7.246;2023-05-02T08:08:42;17.60;;;8.20;;
4096;SDS011;2062;50.694;7.246;2023-05-02T08:11:09;21.17;;;8.90;;
4096;SDS011;2062;50.694;7.246;2023-05-02T08:13:36;20.98;;;8.82;;
4096;SDS011;2062;50.694;7.246;2023-05-02T08:16:03;19.67;;;8.50;;
4096;SDS011;2062;50.694;7.246;2023-05-02T08:18:32;21.42;;;9.00;;
4096;SDS011;2062;50.694;7.246;2023-05-02T08:20:59;21.98;;;10.38;;
4096;SDS011;2062;50.694;7.246;2023-05-02T08:23:25;20.90;;;9.73;;
4096;SDS011;2062;50.694;7.246;2023-05-02T08:25:52;23.35;;;10.10;;
4096;SDS011;2062;50.694;7.246;2023-05-02T08:28:19;24.20;;;10.07;;
4096;SDS011;2062;50.694;7.246;2023-05-02T08:30:46;22.95;;;9.23;;
4096;SDS011;2062;50.694;7.246;2023-05-02T08:33:13;22.50;;;10.45;;
4096;SDS011;2062;50.694;7.246;2023-05-02T08:35:41;21.55;;;9.90;;
4096;SDS011;2062;50.694;7.246;2023-05-02T08:38:08;22.17;;;10.43;;
4096;SDS011;2062;50.694;7.246;2023-05-02T08:40:35;24.30;;;11.03;;
4096;SDS011;2062;50.694;7.246;2023-05-02T08:43:03;24.67;;;11.02;;
4096;SDS011;2062;50.694;7.246;2023-05-02T08:45:33;26.73;;;11.27;;
4096;SDS011;2062;50.694;7.246;2023-05-02T08:48:04;27.77;;;11.85;;
4096;SDS011;2062;50.694;7.246;2023-05-02T08:50:35;26.77;;;11.70;;
4096;SDS011;2062;50.694;7.246;2023-05-02T08:53:04;28.77;;;12.27;;
4096;SDS011;2062;50.694;7.246;2023-05-02T08:55:32;29.48;;;12.30;;
4096;SDS011;2062;50.694;7.246;2023-05-02T08:58:03;31.65;;;14.13;;
4096;SDS011;2062;50.694;7.246;2023-05-02T09:00:31;27.00;;;12.45;;
4096;SDS011;2062;50.694;7.246;2023-05-02T09:03:03;25.70;;;11.48;;
4096;SDS011;2062;50.694;7.246;2023-05-02T09:05:38;23.07;;;10.40;;
4096;SDS011;2062;50.694;7.246;2023-05-02T09:08:07;21.73;;;9.35;;
4096;SDS011;2062;50.694;7.246;2023-05-02T09:10:35;21.45;;;9.48;;
4096;SDS011;2062;50.694;7.246;2023-05-02T09:15:57;23.23;;;8.75;;
4096;SDS011;2062;50.694;7.246;2023-05-02T09:18:28;22.63;;;8.47;;
4096;SDS011;2062;50.694;7.246;2023-05-02T09:20:57;23.45;;;9.48;;
4096;SDS011;2062;50.694;7.246;2023-05-02T09:23:33;22.52;;;9.18;;
4096;SDS011;2062;50.694;7.246;2023-05-02T09:26:10;23.95;;;9.80;;
4096;SDS011;2062;50.694;7.246;2023-05-02T09:28:41;23.92;;;9.45;;
4096;SDS011;2062;50.694;7.246;2023-05-02T09:31:09;22.43;;;9.50;;
4096;SDS011;2062;50.694;7.246;2023-05-02T09:33:38;24.45;;;9.55;;
4096;SDS011;2062;50.694;7.246;2023-05-02T09:36:05;24.23;;;10.10;;
4096;SDS011;2062;50.694;7.246;2023-05-02T09:38:37;21.38;;;9.98;;
4096;SDS011;2062;50.694;7.246;2023-05-02T09:41:04;19.73;;;8.88;;
4096;SDS011;2062;50.694;7.246;2023-05-02T09:43:31;20.40;;;9.30;;
4096;SDS011;2062;50.694;7.246;2023-05-02T09:45:58;20.80;;;9.23;;
4096;SDS011;2062;50.694;7.246;2023-05-02T09:48:26;20.48;;;9.07;;
4096;SDS011;2062;50.694;7.246;2023-05-02T09:50:53;20.13;;;9.25;;
4096;SDS011;2062;50.694;7.246;2023-05-02T09:53:21;20.20;;;9.02;;
4096;SDS011;2062;50.694;7.246;2023-05-02T09:55:57;23.37;;;9.50;;
4096;SDS011;2062;50.694;7.246;2023-05-02T09:58:25;20.25;;;9.18;;
4096;SDS011;2062;50.694;7.246;2023-05-02T10:00:52;20.05;;;9.50;;
4096;SDS011;2062;50.694;7.246;2023-05-02T10:03:19;18.92;;;9.10;;
4096;SDS011;2062;50.694;7.246;2023-05-02T10:05:50;20.42;;;9.35;;
4096;SDS011;2062;50.694;7.246;2023-05-02T10:08:18;21.60;;;9.40;;
4096;SDS011;2062;50.694;7.246;2023-05-02T10:10:47;20.63;;;9.25;;
4096;SDS011;2062;50.694;7.246;2023-05-02T10:13:20;22.77;;;10.45;;
4096;SDS011;2062;50.694;7.246;2023-05-02T10:15:49;22.08;;;9.88;;
4096;SDS011;2062;50.694;7.246;2023-05-02T10:18:25;20.50;;;10.00;;
4096;SDS011;2062;50.694;7.246;2023-05-02T10:20:57;20.00;;;9.17;;
4096;SDS011;2062;50.694;7.246;2023-05-02T10:23:26;21.42;;;9.25;;
4096;SDS011;2062;50.694;7.246;2023-05-02T10:25:54;23.30;;;9.20;;
4096;SDS011;2062;50.694;7.246;2023-05-02T10:28:23;15.20;;;6.75;;
4096;SDS011;2062;50.694;7.246;2023-05-02T10:30:51;13.48;;;5.95;;
4096;SDS011;2062;50.694;7.246;2023-05-02T10:33:19;16.10;;;6.03;;
4096;SDS011;2062;50.694;7.246;2023-05-02T10:35:46;14.90;;;6.40;;
4096;SDS011;2062;50.694;7.246;2023-05-02T10:38:14;15.52;;;7.53;;
4096;SDS011;2062;50.694;7.246;2023-05-02T10:40:46;15.65;;;8.32;;
4096;SDS011;2062;50.694;7.246;2023-05-02T10:43:20;16.67;;;8.57;;
4096;SDS011;2062;50.694;7.246;2023-05-02T10:45:53;18.50;;;8.63;;
4096;SDS011;2062;50.694;7.246;2023-05-02T10:48:20;18.15;;;8.73;;
4096;SDS011;2062;50.694;7.246;2023-05-02T10:50:49;17.17;;;7.47;;
4096;SDS011;2062;50.694;7.246;2023-05-02T10:53:27;16.77;;;7.32;;
4096;SDS011;2062;50.694;7.246;2023-05-02T10:56:10;17.23;;;7.13;;
4096;SDS011;2062;50.694;7.246;2023-05-02T10:58:47;13.37;;;6.00;;
4096;SDS011;2062;50.694;7.246;2023-05-02T11:04:07;15.55;;;6.55;;
4096;SDS011;2062;50.694;7.246;2023-05-02T11:06:36;14.48;;;6.30;;
4096;SDS011;2062;50.694;7.246;2023-05-02T11:09:31;17.13;;;6.28;;
4096;SDS011;2062;50.694;7.246;2023-05-02T11:11:58;13.47;;;6.07;;
4096;SDS011;2062;50.694;7.246;2023-05-02T11:14:47;16.52;;;6.25;;
4096;SDS011;2062;50.694;7.246;2023-05-02T11:17:17;14.38;;;6.07;;
4096;SDS011;2062;50.694;7.246;2023-05-02T11:22:54;13.65;;;6.95;;
4096;SDS011;2062;50.694;7.246;2023-05-02T11:25:34;19.00;;;6.97;;
4096;SDS011;2062;50.694;7.246;2023-05-02T11:28:03;18.90;;;8.00;;
4096;SDS011;2062;50.694;7.246;2023-05-02T11:30:35;17.77;;;6.97;;
4096;SDS011;2062;50.694;7.246;2023-05-02T11:33:14;15.82;;;6.93;;
4096;SDS011;2062;50.694;7.246;2023-05-02T11:35:42;15.02;;;7.28;;
4096;SDS011;2062;50.694;7.246;2023-05-02T11:38:11;16.63;;;7.67;;
4096;SDS011;2062;50.694;7.246;2023-05-02T11:40:46;16.73;;;8.85;;
4096;SDS011;2062;50.694;7.246;2023-05-02T11:43:16;19.85;;;8.95;;
4096;SDS011;2062;50.694;7.246;2023-05-02T11:45:45;17.45;;;8.45;;
4096;SDS011;2062;50.694;7.246;2023-05-02T11:48:14;19.48;;;8.75;;
4096;SDS011;2062;50.694;7.246;2023-05-02T11:50:42;15.83;;;8.37;;
4096;SDS011;2062;50.694;7.246;2023-05-02T11:53:11;15.73;;;8.27;;
4096;SDS011;2062;50.694;7.246;2023-05-02T11:55:44;14.02;;;7.60;;
4096;SDS011;2062;50.694;7.246;2023-05-02T11:58:12;15.88;;;8.32;;
4096;SDS011;2062;50.694;7.246;2023-05-02T12:00:41;17.63;;;8.15;;
4096;SDS011;2062;50.694;7.246;2023-05-02T12:03:17;13.87;;;8.60;;
4096;SDS011;2062;50.694;7.246;2023-05-02T12:05:46;17.85;;;8.20;;
4096;SDS011;2062;50.694;7.246;2023-05-02T12:08:16;21.77;;;8.48;;
4096;SDS011;2062;50.694;7.246;2023-05-02T12:10:45;17.33;;;8.65;;
4096;SDS011;2062;50.694;7.246;2023-05-02T12:13:12;16.92;;;8.88;;
4096;SDS011;2062;50.694;7.246;2023-05-02T12:15:40;17.50;;;9.03;;
4096;SDS011;2062;50.694;7.246;2023-05-02T12:18:07;15.75;;;8.82;;
4096;SDS011;2062;50.694;7.246;2023-05-02T12:20:34;19.00;;;9.93;;
4096;SDS011;2062;50.694;7.246;2023-05-02T12:23:03;17.85;;;8.98;;
4096;SDS011;2062;50.694;7.246;2023-05-02T12:25:31;17.05;;;9.60;;
4096;SDS011;2062;50.694;7.246;2023-05-02T12:27:59;15.37;;;9.27;;
4096;SDS011;2062;50.694;7.246;2023-05-02T12:30:26;16.25;;;8.88;;
4096;SDS011;2062;50.694;7.246;2023-05-02T12:32:57;18.13;;;8.95;;
4096;SDS011;2062;50.694;7.246;2023-05-02T12:35:25;17.98;;;8.60;;
4096;SDS011;2062;50.694;7.246;2023-05-02T12:37:53;16.30;;;9.18;;
4096;SDS011;2062;50.694;7.246;2023-05-02T12:40:20;15.47;;;9.07;;
4096;SDS011;2062;50.694;7.246;2023-05-02T12:42:57;15.40;;;8.63;;
4096;SDS011;2062;50.694;7.246;2023-05-02T12:45:26;13.63;;;8.32;;
4096;SDS011;2062;50.694;7.246;2023-05-02T12:47:57;14.85;;;8.40;;
4096;SDS011;2062;50.694;7.246;2023-05-02T12:50:34;15.48;;;8.23;;
4096;SDS011;2062;50.694;7.246;2023-05-02T12:53:01;14.10;;;8.40;;
4096;SDS011;2062;50.694;7.246;2023-05-02T12:55:28;15.88;;;8.10;;
4096;SDS011;2062;50.694;7.246;2023-05-02T12:58:00;14.95;;;8.63;;
4096;SDS011;2062;50.694;7.246;2023-05-02T13:00:28;15.07;;;8.07;;
4096;SDS011;2062;50.694;7.246;2023-05-02T13:02:56;16.23;;;8.60;;
4096;SDS011;2062;50.694;7.246;2023-05-02T13:05:23;17.93;;;8.67;;
4096;SDS011;2062;50.694;7.246;2023-05-02T13:07:50;16.25;;;8.60;;
4096;SDS011;2062;50.694;7.246;2023-05-02T13:10:17;15.75;;;7.95;;
4096;SDS011;2062;50.694;7.246;2023-05-02T13:12:44;16.15;;;8.32;;
4096;SDS011;2062;50.694;7.246;2023-05-02T13:15:12;15.02;;;8.70;;
4096;SDS011;2062;50.694;7.246;2023-05-02T13:17:40;15.13;;;8.03;;
4096;SDS011;2062;50.694;7.246;2023-05-02T13:20:08;17.63;;;8.80;;
4096;SDS011;2062;50.694;7.246;2023-05-02T13:22:35;15.73;;;8.27;;
4096;SDS011;2062;50.694;7.246;2023-05-02T13:25:02;14.48;;;8.80;;
4096;SDS011;2062;50.694;7.246;2023-05-02T13:27:29;18.48;;;8.95;;
4096;SDS011;2062;50.694;7.246;2023-05-02T13:29:58;16.87;;;8.70;;
4096;SDS011;2062;50.694;7.246;2023-05-02T13:32:25;14.18;;;7.85;;
4096;SDS011;2062;50.694;7.246;2023-05-02T13:34:54;15.18;;;8.15;;
4096;SDS011;2062;50.694;7.246;2023-05-02T13:37:21;13.13;;;7.43;;
4096;SDS011;2062;50.694;7.246;2023-05-02T13:39:48;14.60;;;6.85;;
4096;SDS011;2062;50.694;7.246;2023-05-02T13:42:15;11.27;;;5.87;;
4096;SDS011;2062;50.694;7.246;2023-05-02T13:44:41;10.48;;;5.85;;
4096;SDS011;2062;50.694;7.246;2023-05-02T13:47:08;11.30;;;5.85;;
4096;SDS011;2062;50.694;7.246;2023-05-02T13:49:35;12.55;;;5.85;;
4096;SDS011;2062;50.694;7.246;2023-05-02T13:52:03;9.80;;;5.45;;
4096;SDS011;2062;50.694;7.246;2023-05-02T13:54:31;12.13;;;6.37;;
4096;SDS011;2062;50.694;7.246;2023-05-02T13:56:58;11.55;;;6.20;;
4096;SDS011;2062;50.694;7.246;2023-05-02T13:59:25;14.23;;;6.35;;
4096;SDS011;2062;50.694;7.246;2023-05-02T14:01:51;13.35;;;5.97;;
4096;SDS011;2062;50.694;7.246;2023-05-02T14:04:18;12.85;;;6.22;;
4096;SDS011;2062;50.694;7.246;2023-05-02T14:06:45;11.37;;;5.67;;
4096;SDS011;2062;50.694;7.246;2023-05-02T14:09:13;11.68;;;5.47;;
4096;SDS011;2062;50.694;7.246;2023-05-02T14:11:41;10.18;;;5.80;;
4096;SDS011;2062;50.694;7.246;2023-05-02T14:14:08;13.00;;;5.78;;
4096;SDS011;2062;50.694;7.246;2023-05-02T14:16:36;12.57;;;5.55;;
4096;SDS011;2062;50.694;7.246;2023-05-02T14:19:03;13.00;;;5.90;;
4096;SDS011;2062;50.694;7.246;2023-05-02T14:21:30;10.00;;;6.22;;
4096;SDS011;2062;50.694;7.246;2023-05-02T14:23:57;11.50;;;6.00;;
4096;SDS011;2062;50.694;7.246;2023-05-02T14:26:25;11.75;;;6.30;;
4096;SDS011;2062;50.694;7.246;2023-05-02T14:28:52;10.45;;;5.88;;
4096;SDS011;2062;50.694;7.246;2023-05-02T14:31:20;12.80;;;5.97;;
4096;SDS011;2062;50.694;7.246;2023-05-02T14:33:46;11.80;;;6.30;;
4096;SDS011;2062;50.694;7.246;2023-05-02T14:36:13;13.25;;;6.15;;
4096;SDS011;2062;50.694;7.246;2023-05-02T14:38:40;13.48;;;6.50;;
4096;SDS011;2062;50.694;7.246;2023-05-02T14:41:07;12.50;;;6.72;;
4096;SDS011;2062;50.694;7.246;2023-05-02T14:43:36;11.53;;;6.33;;
4096;SDS011;2062;50.694;7.246;2023-05-02T14:46:03;15.77;;;6.25;;
4096;SDS011;2062;50.694;7.246;2023-05-02T14:48:30;12.80;;;6.25;;
4096;SDS011;2062;50.694;7.246;2023-05-02T14:50:57;9.82;;;5.50;;
4096;SDS011;2062;50.694;7.246;2023-05-02T14:53:25;12.45;;;6.10;;
4096;SDS011;2062;50.694;7.246;2023-05-02T14:55:52;9.87;;;5.60;;
4096;SDS011;2062;50.694;7.246;2023-05-02T14:58:18;10.23;;;5.40;;
4096;SDS011;2062;50.694;7.246;2023-05-02T15:00:47;11.70;;;6.00;;
4096;SDS011;2062;50.694;7.246;2023-05-02T15:03:14;15.75;;;5.80;;
4096;SDS011;2062;50.694;7.246;2023-05-02T15:05:40;12.95;;;6.03;;
4096;SDS011;2062;50.694;7.246;2023-05-02T15:08:07;11.90;;;6.00;;
4096;SDS011;2062;50.694;7.246;2023-05-02T15:10:37;11.52;;;5.80;;
4096;SDS011;2062;50.694;7.246;2023-05-02T15:13:04;10.48;;;6.10;;